sensor_id;sensor_type;location;lat;lon;timestamp;P1;durP1;ratioP1;P2;durP2;ratioP2
27618;SDS011;15039;50.830;4.730;2023-01-06T00:01:49;5.38;;;2.13;;
27618;SDS011;15039;50.830;4.730;2023-01-06T00:04:15;3.15;;;1.02;;
27618;SDS011;15039;50.830;4.730;2023-01-06T00:06:40;6.07;;;1.30;;
27618;SDS011;15039;50.830;4.730;2023-01-06T00:09:06;3.60;;;1.30;;
27618;SDS011;15039;50.830;4.730;2023-01-06T00:11:33;4.82;;;1.48;;
27618;SDS011;15039;50.830;4.730;2023-01-06T00:14:00;3.80;;;0.80;;
27618;SDS011;15039;50.830;4.730;2023-01-06T00:16:26;1.92;;;0.88;;
27618;SDS011;15039;50.830;4.730;2023-01-06T00:18:56;2.45;;;1.15;;
27618;SDS011;15039;50.830;4.730;2023-01-06T00:21:23;2.80;;;1.08;;
27618;SDS011;15039;50.830;4.730;2023-01-06T00:23:49;4.18;;;1.08;;
27618;SDS011;15039;50.830;4.730;2023-01-06T00:26:15;3.88;;;1.17;;
27618;SDS011;15039;50.830;4.730;2023-01-06T00:28:40;6.35;;;1.27;;
27618;SDS011;15039;50.830;4.730;2023-01-06T00:31:08;2.75;;;1.00;;
27618;SDS011;15039;50.830;4.730;2023-01-06T00:33:35;2.60;;;1.08;;
27618;SDS011;15039;50.830;4.730;2023-01-06T00:36:00;2.00;;;0.98;;
27618;SDS011;15039;50.830;4.730;2023-01-06T00:38:26;6.25;;;1.40;;
27618;SDS011;15039;50.830;4.730;2023-01-06T00:40:52;3.60;;;1.10;;
27618;SDS011;15039;50.830;4.730;2023-01-06T00:43:18;3.13;;;0.98;;
27618;SDS011;15039;50.830;4.730;2023-01-06T00:45:43;1.30;;;0.88;;
27618;SDS011;15039;50.830;4.730;2023-01-06T00:48:09;3.28;;;1.23;;
27618;SDS011;15039;50.830;4.730;2023-01-06T00:50:34;3.45;;;1.30;;
27618;SDS011;15039;50.830;4.730;2023-01-06T00:53:00;3.00;;;1.02;;
27618;SDS011;15039;50.830;4.730;2023-01-06T00:55:26;4.88;;;0.95;;
27618;SDS011;15039;50.830;4.730;2023-01-06T00:57:53;2.60;;;1.38;;
27618;SDS011;15039;50.830;4.730;2023-01-06T01:00:19;3.38;;;1.40;;
27618;SDS011;15039;50.830;4.730;2023-01-06T01:02:45;3.58;;;1.17;;
27618;SDS011;15039;50.830;4.730;2023-01-06T01:05:11;3.30;;;1.02;;
27618;SDS011;15039;50.830;4.730;2023-01-06T01:07:37;2.95;;;1.10;;
27618;SDS011;15039;50.830;4.730;2023-01-06T01:10:05;2.00;;;1.02;;
27618;SDS011;15039;50.830;4.730;2023-01-06T01:12:31;4.43;;;0.93;;
27618;SDS011;15039;50.830;4.730;2023-01-06T01:14:57;2.08;;;0.90;;
27618;SDS011;15039;50.830;4.730;2023-01-06T01:17:31;4.95;;;1.30;;
27618;SDS011;15039;50.830;4.730;2023-01-06T01:19:57;4.45;;;1.23;;
27618;SDS011;15039;50.830;4.730;2023-01-06T01:22:24;3.22;;;1.30;;
27618;SDS011;15039;50.830;4.730;2023-01-06T01:24:52;4.80;;;1.17;;
27618;SDS011;15039;50.830;4.730;2023-01-06T01:27:17;2.88;;;0.90;;
27618;SDS011;15039;50.830;4.730;2023-01-06T01:29:43;4.53;;;1.00;;
27618;SDS011;15039;50.830;4.730;2023-01-06T01:32:09;3.10;;;1.02;;
27618;SDS011;15039;50.830;4.730;2023-01-06T01:34:35;2.47;;;0.70;;
27618;SDS011;15039;50.830;4.730;2023-01-06T01:37:01;1.05;;;0.80;;
27618;SDS011;15039;50.830;4.730;2023-01-06T01:39:27;1.17;;;0.80;;
27618;SDS011;15039;50.830;4.730;2023-01-06T01:41:54;3.20;;;1.30;;
27618;SDS011;15039;50.830;4.730;2023-01-06T01:50:12;1.48;;;0.77;;
27618;SDS011;15039;50.830;4.730;2023-01-06T01:52:51;5.03;;;1.10;;
27618;SDS011;15039;50.830;4.730;2023-01-06T01:55:20;1.95;;;1.00;;
27618;SDS011;15039;50.830;4.730;2023-01-06T02:00:21;1.17;;;0.90;;
27618;SDS011;15039;50.830;4.730;2023-01-06T02:02:46;3.08;;;0.93;;
27618;SDS011;15039;50.830;4.730;2023-01-06T02:05:13;2.90;;;1.00;;
27618;SDS011;15039;50.830;4.730;2023-01-06T02:07:42;3.33;;;0.98;;
27618;SDS011;15039;50.830;4.730;2023-01-06T02:10:19;1.63;;;0.98;;
27618;SDS011;15039;50.830;4.730;2023-01-06T02:12:47;1.77;;;0.80;;
27618;SDS011;15039;50.830;4.730;2023-01-06T02:15:26;2.25;;;0.95;;
27618;SDS011;15039;50.830;4.730;2023-01-06T02:23:28;4.18;;;1.02;;
27618;SDS011;15039;50.830;4.730;2023-01-06T02:26:08;3.60;;;1.13;;
27618;SDS011;15039;50.830;4.730;2023-01-06T02:34:12;1.65;;;0.85;;
27618;SDS011;15039;50.830;4.730;2023-01-06T02:48:09;1.33;;;0.65;;
27618;SDS011;15039;50.830;4.730;2023-01-06T02:50:42;2.00;;;0.77;;
27618;SDS011;15039;50.830;4.730;2023-01-06T02:55:55;1.63;;;0.73;;
27618;SDS011;15039;50.830;4.730;2023-01-06T02:58:29;4.13;;;0.90;;
27618;SDS011;15039;50.830;4.730;2023-01-06T03:01:27;1.23;;;0.60;;
27618;SDS011;15039;50.830;4.730;2023-01-06T03:04:01;1.30;;;0.70;;
27618;SDS011;15039;50.830;4.730;2023-01-06T03:06:30;2.58;;;1.02;;
27618;SDS011;15039;50.830;4.730;2023-01-06T03:08:59;1.60;;;0.60;;
27618;SDS011;15039;50.830;4.730;2023-01-06T03:11:28;1.02;;;0.80;;
27618;SDS011;15039;50.830;4.730;2023-01-06T03:16:39;4.30;;;0.93;;
27618;SDS011;15039;50.830;4.730;2023-01-06T03:19:05;2.05;;;0.80;;
27618;SDS011;15039;50.830;4.730;2023-01-06T03:21:32;1.80;;;0.93;;
27618;SDS011;15039;50.830;4.730;2023-01-06T03:24:03;5.43;;;1.20;;
27618;SDS011;15039;50.830;4.730;2023-01-06T03:26:29;0.90;;;0.70;;
27618;SDS011;15039;50.830;4.730;2023-01-06T03:28:55;1.33;;;0.80;;
27618;SDS011;15039;50.830;4.730;2023-01-06T03:31:25;3.65;;;0.80;;
27618;SDS011;15039;50.830;4.730;2023-01-06T03:37:03;1.35;;;0.80;;
27618;SDS011;15039;50.830;4.730;2023-01-06T03:42:33;2.17;;;0.80;;
27618;SDS011;15039;50.830;4.730;2023-01-06T03:45:38;1.87;;;0.80;;
27618;SDS011;15039;50.830;4.730;2023-01-06T03:56:53;1.48;;;0.80;;
27618;SDS011;15039;50.830;4.730;2023-01-06T03:59:25;2.08;;;0.65;;
27618;SDS011;15039;50.830;4.730;2023-01-06T04:01:54;2.63;;;1.15;;
27618;SDS011;15039;50.830;4.730;2023-01-06T04:04:20;3.88;;;1.00;;
27618;SDS011;15039;50.830;4.730;2023-01-06T04:06:46;3.35;;;1.10;;
27618;SDS011;15039;50.830;4.730;2023-01-06T04:09:12;2.80;;;1.10;;
27618;SDS011;15039;50.830;4.730;2023-01-06T04:11:37;1.13;;;1.00;;
27618;SDS011;15039;50.830;4.730;2023-01-06T04:14:21;1.77;;;0.82;;
27618;SDS011;15039;50.830;4.730;2023-01-06T04:16:47;6.07;;;1.35;;
27618;SDS011;15039;50.830;4.730;2023-01-06T04:19:13;4.32;;;0.98;;
27618;SDS011;15039;50.830;4.730;2023-01-06T04:21:38;1.33;;;0.90;;
27618;SDS011;15039;50.830;4.730;2023-01-06T04:24:04;3.03;;;1.10;;
27618;SDS011;15039;50.830;4.730;2023-01-06T04:26:30;1.40;;;1.13;;
27618;SDS011;15039;50.830;4.730;2023-01-06T04:28:57;2.85;;;1.08;;
27618;SDS011;15039;50.830;4.730;2023-01-06T04:31:24;2.58;;;0.95;;
27618;SDS011;15039;50.830;4.730;2023-01-06T04:33:49;3.63;;;1.08;;
27618;SDS011;15039;50.830;4.730;2023-01-06T04:36:15;1.83;;;0.98;;
27618;SDS011;15039;50.830;4.730;2023-01-06T04:38:41;2.08;;;1.05;;
27618;SDS011;15039;50.830;4.730;2023-01-06T04:41:06;1.45;;;0.75;;
27618;SDS011;15039;50.830;4.730;2023-01-06T04:43:32;3.08;;;0.75;;
27618;SDS011;15039;50.830;4.730;2023-01-06T04:45:58;1.80;;;0.82;;
27618;SDS011;15039;50.830;4.730;2023-01-06T04:48:23;2.80;;;0.82;;
27618;SDS011;15039;50.830;4.730;2023-01-06T04:50:58;1.05;;;0.75;;
27618;SDS011;15039;50.830;4.730;2023-01-06T04:53:28;2.88;;;0.80;;
27618;SDS011;15039;50.830;4.730;2023-01-06T04:55:54;0.80;;;0.80;;
27618;SDS011;15039;50.830;4.730;2023-01-06T04:58:19;1.10;;;0.88;;
27618;SDS011;15039;50.830;4.730;2023-01-06T05:00:45;4.28;;;0.93;;
27618;SDS011;15039;50.830;4.730;2023-01-06T05:03:11;2.13;;;0.90;;
27618;SDS011;15039;50.830;4.730;2023-01-06T05:05:37;1.13;;;0.80;;
27618;SDS011;15039;50.830;4.730;2023-01-06T05:08:02;1.73;;;0.90;;
27618;SDS011;15039;50.830;4.730;2023-01-06T05:10:28;1.30;;;0.90;;
27618;SDS011;15039;50.830;4.730;2023-01-06T05:12:53;1.35;;;0.80;;
27618;SDS011;15039;50.830;4.730;2023-01-06T05:15:19;1.13;;;0.80;;
27618;SDS011;15039;50.830;4.730;2023-01-06T05:17:45;2.65;;;1.13;;
27618;SDS011;15039;50.830;4.730;2023-01-06T05:20:10;2.20;;;1.10;;
27618;SDS011;15039;50.830;4.730;2023-01-06T05:22:36;1.10;;;0.98;;
27618;SDS011;15039;50.830;4.730;2023-01-06T05:25:02;2.67;;;1.40;;
27618;SDS011;15039;50.830;4.730;2023-01-06T05:27:27;2.80;;;1.30;;
27618;SDS011;15039;50.830;4.730;2023-01-06T05:29:53;2.00;;;1.05;;
27618;SDS011;15039;50.830;4.730;2023-01-06T05:32:19;2.92;;;1.33;;
27618;SDS011;15039;50.830;4.730;2023-01-06T05:34:44;1.70;;;1.15;;
27618;SDS011;15039;50.830;4.730;2023-01-06T05:37:10;2.63;;;0.98;;
27618;SDS011;15039;50.830;4.730;2023-01-06T05:39:35;1.17;;;0.90;;
27618;SDS011;15039;50.830;4.730;2023-01-06T05:42:01;1.25;;;0.90;;
27618;SDS011;15039;50.830;4.730;2023-01-06T05:44:27;1.77;;;1.20;;
27618;SDS011;15039;50.830;4.730;2023-01-06T05:46:52;1.70;;;1.23;;
27618;SDS011;15039;50.830;4.730;2023-01-06T05:49:18;3.50;;;1.10;;
27618;SDS011;15039;50.830;4.730;2023-01-06T05:51:43;1.40;;;0.88;;
27618;SDS011;15039;50.830;4.730;2023-01-06T05:54:09;4.70;;;1.23;;
27618;SDS011;15039;50.830;4.730;2023-01-06T05:56:35;1.48;;;1.08;;
27618;SDS011;15039;50.830;4.730;2023-01-06T05:59:01;2.22;;;1.02;;
27618;SDS011;15039;50.830;4.730;2023-01-06T06:01:28;2.25;;;1.02;;
27618;SDS011;15039;50.830;4.730;2023-01-06T06:03:55;0.90;;;0.90;;
27618;SDS011;15039;50.830;4.730;2023-01-06T06:06:22;0.75;;;0.75;;
27618;SDS011;15039;50.830;4.730;2023-01-06T06:08:50;2.05;;;1.00;;
27618;SDS011;15039;50.830;4.730;2023-01-06T06:11:16;2.47;;;0.90;;
27618;SDS011;15039;50.830;4.730;2023-01-06T06:13:53;1.00;;;0.80;;
27618;SDS011;15039;50.830;4.730;2023-01-06T06:16:22;0.95;;;0.90;;
27618;SDS011;15039;50.830;4.730;2023-01-06T06:18:51;2.45;;;0.63;;
27618;SDS011;15039;50.830;4.730;2023-01-06T06:21:22;1.38;;;0.68;;
27618;SDS011;15039;50.830;4.730;2023-01-06T06:23:51;0.93;;;0.80;;
27618;SDS011;15039;50.830;4.730;2023-01-06T06:26:17;1.73;;;0.80;;
27618;SDS011;15039;50.830;4.730;2023-01-06T06:28:42;1.42;;;0.80;;
27618;SDS011;15039;50.830;4.730;2023-01-06T06:31:12;1.27;;;0.90;;
27618;SDS011;15039;50.830;4.730;2023-01-06T06:33:43;2.05;;;0.82;;
27618;SDS011;15039;50.830;4.730;2023-01-06T06:36:09;2.47;;;0.80;;
27618;SDS011;15039;50.830;4.730;2023-01-06T06:38:40;0.63;;;0.60;;
27618;SDS011;15039;50.830;4.730;2023-01-06T06:41:06;1.27;;;0.60;;
27618;SDS011;15039;50.830;4.730;2023-01-06T06:43:32;0.60;;;0.60;;
27618;SDS011;15039;50.830;4.730;2023-01-06T06:45:58;4.53;;;0.60;;
27618;SDS011;15039;50.830;4.730;2023-01-06T06:48:24;0.88;;;0.50;;
27618;SDS011;15039;50.830;4.730;2023-01-06T06:50:59;1.10;;;0.60;;
27618;SDS011;15039;50.830;4.730;2023-01-06T06:53:31;1.35;;;0.70;;
27618;SDS011;15039;50.830;4.730;2023-01-06T06:55:57;2.03;;;0.70;;
27618;SDS011;15039;50.830;4.730;2023-01-06T06:58:22;1.77;;;0.60;;
27618;SDS011;15039;50.830;4.730;2023-01-06T07:00:48;2.08;;;0.60;;
27618;SDS011;15039;50.830;4.730;2023-01-06T07:03:14;1.08;;;0.70;;
27618;SDS011;15039;50.830;4.730;2023-01-06T07:05:43;0.50;;;0.50;;
27618;SDS011;15039;50.830;4.730;2023-01-06T07:08:13;0.68;;;0.68;;
27618;SDS011;15039;50.830;4.730;2023-01-06T07:10:38;1.02;;;0.80;;
27618;SDS011;15039;50.830;4.730;2023-01-06T07:13:04;1.27;;;0.60;;
27618;SDS011;15039;50.830;4.730;2023-01-06T07:15:30;0.52;;;0.52;;
27618;SDS011;15039;50.830;4.730;2023-01-06T07:18:00;0.73;;;0.60;;
27618;SDS011;15039;50.830;4.730;2023-01-06T07:20:29;1.35;;;0.70;;
27618;SDS011;15039;50.830;4.730;2023-01-06T07:22:59;0.60;;;0.60;;
27618;SDS011;15039;50.830;4.730;2023-01-06T07:25:26;0.70;;;0.60;;
27618;SDS011;15039;50.830;4.730;2023-01-06T07:27:53;1.75;;;0.75;;
27618;SDS011;15039;50.830;4.730;2023-01-06T07:30:19;0.68;;;0.68;;
27618;SDS011;15039;50.830;4.730;2023-01-06T07:32:46;1.85;;;0.88;;
27618;SDS011;15039;50.830;4.730;2023-01-06T07:35:12;0.60;;;0.60;;
27618;SDS011;15039;50.830;4.730;2023-01-06T07:37:37;1.10;;;0.73;;
27618;SDS011;15039;50.830;4.730;2023-01-06T07:40:03;1.73;;;0.80;;
27618;SDS011;15039;50.830;4.730;2023-01-06T07:42:29;0.60;;;0.60;;
27618;SDS011;15039;50.830;4.730;2023-01-06T07:44:55;0.70;;;0.70;;
27618;SDS011;15039;50.830;4.730;2023-01-06T07:47:20;1.48;;;0.70;;
27618;SDS011;15039;50.830;4.730;2023-01-06T07:49:46;1.08;;;0.85;;
27618;SDS011;15039;50.830;4.730;2023-01-06T07:52:11;0.93;;;0.93;;
27618;SDS011;15039;50.830;4.730;2023-01-06T07:54:37;0.80;;;0.80;;
27618;SDS011;15039;50.830;4.730;2023-01-06T07:57:03;1.38;;;0.90;;
27618;SDS011;15039;50.830;4.730;2023-01-06T07:59:28;0.90;;;0.90;;
27618;SDS011;15039;50.830;4.730;2023-01-06T08:01:54;1.52;;;1.20;;
27618;SDS011;15039;50.830;4.730;2023-01-06T08:04:19;0.80;;;0.80;;
27618;SDS011;15039;50.830;4.730;2023-01-06T08:06:45;2.10;;;1.23;;
27618;SDS011;15039;50.830;4.730;2023-01-06T08:09:11;0.80;;;0.80;;
27618;SDS011;15039;50.830;4.730;2023-01-06T08:11:36;1.25;;;0.80;;
27618;SDS011;15039;50.830;4.730;2023-01-06T08:14:02;1.15;;;0.93;;
27618;SDS011;15039;50.830;4.730;2023-01-06T08:16:27;0.98;;;0.73;;
27618;SDS011;15039;50.830;4.730;2023-01-06T08:18:53;2.58;;;0.88;;
27618;SDS011;15039;50.830;4.730;2023-01-06T08:21:19;0.82;;;0.70;;
27618;SDS011;15039;50.830;4.730;2023-01-06T08:23:44;0.80;;;0.80;;
27618;SDS011;15039;50.830;4.730;2023-01-06T08:26:10;1.95;;;1.13;;
27618;SDS011;15039;50.830;4.730;2023-01-06T08:28:38;1.45;;;0.70;;
27618;SDS011;15039;50.830;4.730;2023-01-06T08:31:08;0.90;;;0.90;;
27618;SDS011;15039;50.830;4.730;2023-01-06T08:33:35;2.00;;;0.80;;
27618;SDS011;15039;50.830;4.730;2023-01-06T08:36:02;1.08;;;0.98;;
27618;SDS011;15039;50.830;4.730;2023-01-06T08:38:30;0.90;;;0.90;;
27618;SDS011;15039;50.830;4.730;2023-01-06T08:40:56;0.90;;;0.90;;
27618;SDS011;15039;50.830;4.730;2023-01-06T08:43:23;1.08;;;0.93;;
27618;SDS011;15039;50.830;4.730;2023-01-06T08:45:49;1.63;;;0.85;;
27618;SDS011;15039;50.830;4.730;2023-01-06T08:48:16;0.70;;;0.70;;
27618;SDS011;15039;50.830;4.730;2023-01-06T08:50:41;0.70;;;0.70;;
27618;SDS011;15039;50.830;4.730;2023-01-06T08:53:11;1.23;;;0.93;;
27618;SDS011;15039;50.830;4.730;2023-01-06T08:55:37;2.05;;;1.02;;
27618;SDS011;15039;50.830;4.730;2023-01-06T08:58:04;1.30;;;0.90;;
27618;SDS011;15039;50.830;4.730;2023-01-06T09:00:30;0.85;;;0.70;;
27618;SDS011;15039;50.830;4.730;2023-01-06T09:02:56;1.08;;;0.70;;
27618;SDS011;15039;50.830;4.730;2023-01-06T09:05:22;1.10;;;0.80;;
27618;SDS011;15039;50.830;4.730;2023-01-06T09:07:48;2.65;;;0.80;;
27618;SDS011;15039;50.830;4.730;2023-01-06T09:10:17;0.82;;;0.63;;
27618;SDS011;15039;50.830;4.730;2023-01-06T09:12:43;1.00;;;0.90;;
27618;SDS011;15039;50.830;4.730;2023-01-06T09:15:10;0.70;;;0.70;;
27618;SDS011;15039;50.830;4.730;2023-01-06T09:17:36;0.90;;;0.90;;
27618;SDS011;15039;50.830;4.730;2023-01-06T09:20:01;0.82;;;0.82;;
27618;SDS011;15039;50.830;4.730;2023-01-06T09:22:28;0.80;;;0.80;;
27618;SDS011;15039;50.830;4.730;2023-01-06T09:24:54;0.82;;;0.63;;
27618;SDS011;15039;50.830;4.730;2023-01-06T09:27:19;1.20;;;0.77;;
27618;SDS011;15039;50.830;4.730;2023-01-06T09:29:45;0.93;;;0.75;;
27618;SDS011;15039;50.830;4.730;2023-01-06T09:32:10;1.10;;;0.70;;
27618;SDS011;15039;50.830;4.730;2023-01-06T09:34:36;1.40;;;1.10;;
27618;SDS011;15039;50.830;4.730;2023-01-06T09:37:02;1.50;;;1.13;;
27618;SDS011;15039;50.830;4.730;2023-01-06T09:39:27;2.28;;;1.00;;
27618;SDS011;15039;50.830;4.730;2023-01-06T09:44:57;2.47;;;1.02;;
27618;SDS011;15039;50.830;4.730;2023-01-06T09:47:32;1.35;;;1.00;;
27618;SDS011;15039;50.830;4.730;2023-01-06T09:55:15;1.30;;;1.20;;
27618;SDS011;15039;50.830;4.730;2023-01-06T09:57:49;2.42;;;1.52;;
27618;SDS011;15039;50.830;4.730;2023-01-06T10:03:00;1.23;;;1.00;;
27618;SDS011;15039;50.830;4.730;2023-01-06T10:17:00;1.50;;;1.40;;
27618;SDS011;15039;50.830;4.730;2023-01-06T10:25:19;1.73;;;1.60;;
27618;SDS011;15039;50.830;4.730;2023-01-06T10:27:52;1.60;;;1.50;;
27618;SDS011;15039;50.830;4.730;2023-01-06T10:30:30;2.88;;;1.40;;
27618;SDS011;15039;50.830;4.730;2023-01-06T10:33:01;2.05;;;1.48;;
27618;SDS011;15039;50.830;4.730;2023-01-06T10:35:28;2.38;;;1.40;;
27618;SDS011;15039;50.830;4.730;2023-01-06T10:37:56;1.95;;;1.70;;
27618;SDS011;15039;50.830;4.730;2023-01-06T10:40:24;1.60;;;1.50;;
27618;SDS011;15039;50.830;4.730;2023-01-06T10:42:53;1.30;;;1.20;;
27618;SDS011;15039;50.830;4.730;2023-01-06T10:48:02;1.55;;;1.42;;
27618;SDS011;15039;50.830;4.730;2023-01-06T10:50:30;1.98;;;1.40;;
27618;SDS011;15039;50.830;4.730;2023-01-06T10:52:58;1.70;;;1.60;;
27618;SDS011;15039;50.830;4.730;2023-01-06T10:57:49;1.58;;;1.48;;
27618;SDS011;15039;50.830;4.730;2023-01-06T11:02:47;2.10;;;1.30;;
27618;SDS011;15039;50.830;4.730;2023-01-06T11:05:33;2.20;;;1.30;;
27618;SDS011;15039;50.830;4.730;2023-01-06T11:12:58;1.40;;;1.30;;
27618;SDS011;15039;50.830;4.730;2023-01-06T11:15:28;1.33;;;1.20;;
27618;SDS011;15039;50.830;4.730;2023-01-06T11:18:00;1.30;;;1.02;;
27618;SDS011;15039;50.830;4.730;2023-01-06T11:20:29;1.17;;;1.00;;
27618;SDS011;15039;50.830;4.730;2023-01-06T11:23:10;1.38;;;0.90;;
27618;SDS011;15039;50.830;4.730;2023-01-06T11:25:38;1.95;;;1.00;;
27618;SDS011;15039;50.830;4.730;2023-01-06T11:28:11;1.23;;;1.10;;
27618;SDS011;15039;50.830;4.730;2023-01-06T11:31:19;1.00;;;1.00;;
27618;SDS011;15039;50.830;4.730;2023-01-06T11:33:28;1.00;;;0.90;;
27618;SDS011;15039;50.830;4.730;2023-01-06T11:35:55;0.80;;;0.80;;
27618;SDS011;15039;50.830;4.730;2023-01-06T11:38:22;2.15;;;1.08;;
27618;SDS011;15039;50.830;4.730;2023-01-06T11:40:49;1.05;;;0.95;;
27618;SDS011;15039;50.830;4.730;2023-01-06T11:43:19;1.10;;;1.00;;
27618;SDS011;15039;50.830;4.730;2023-01-06T11:45:53;1.35;;;1.25;;
27618;SDS011;15039;50.830;4.730;2023-01-06T11:48:24;1.80;;;1.10;;
27618;SDS011;15039;50.830;4.730;2023-01-06T11:50:58;0.98;;;0.98;;
27618;SDS011;15039;50.830;4.730;2023-01-06T11:53:25;1.20;;;1.10;;
27618;SDS011;15039;50.830;4.730;2023-01-06T11:55:57;1.10;;;1.10;;
27618;SDS011;15039;50.830;4.730;2023-01-06T12:01:36;1.60;;;1.30;;
27618;SDS011;15039;50.830;4.730;2023-01-06T12:07:30;1.15;;;1.05;;
27618;SDS011;15039;50.830;4.730;2023-01-06T12:10:10;0.90;;;0.90;;
27618;SDS011;15039;50.830;4.730;2023-01-06T12:12:40;1.92;;;1.70;;
27618;SDS011;15039;50.830;4.730;2023-01-06T12:15:10;1.27;;;1.17;;
27618;SDS011;15039;50.830;4.730;2023-01-06T12:17:40;1.10;;;1.10;;
27618;SDS011;15039;50.830;4.730;2023-01-06T12:20:13;0.95;;;0.95;;
27618;SDS011;15039;50.830;4.730;2023-01-06T12:22:48;1.00;;;1.00;;
27618;SDS011;15039;50.830;4.730;2023-01-06T12:25:20;1.20;;;1.10;;
27618;SDS011;15039;50.830;4.730;2023-01-06T12:27:55;1.15;;;1.05;;
27618;SDS011;15039;50.830;4.730;2023-01-06T12:30:27;1.40;;;1.10;;
27618;SDS011;15039;50.830;4.730;2023-01-06T12:36:18;0.93;;;0.93;;
27618;SDS011;15039;50.830;4.730;2023-01-06T12:38:53;2.08;;;1.10;;
27618;SDS011;15039;50.830;4.730;2023-01-06T12:41:23;1.40;;;1.30;;
27618;SDS011;15039;50.830;4.730;2023-01-06T12:44:08;1.52;;;1.42;;
27618;SDS011;15039;50.830;4.730;2023-01-06T12:49:34;1.35;;;1.00;;
27618;SDS011;15039;50.830;4.730;2023-01-06T12:52:20;1.73;;;1.40;;
27618;SDS011;15039;50.830;4.730;2023-01-06T12:54:55;1.50;;;1.40;;
27618;SDS011;15039;50.830;4.730;2023-01-06T13:00:20;1.65;;;1.55;;
27618;SDS011;15039;50.830;4.730;2023-01-06T13:06:11;3.05;;;1.80;;
27618;SDS011;15039;50.830;4.730;2023-01-06T13:16:38;1.50;;;1.40;;
27618;SDS011;15039;50.830;4.730;2023-01-06T13:19:43;1.40;;;1.30;;
27618;SDS011;15039;50.830;4.730;2023-01-06T13:25:08;1.70;;;1.60;;
27618;SDS011;15039;50.830;4.730;2023-01-06T13:28:13;3.72;;;2.15;;
27618;SDS011;15039;50.830;4.730;2023-01-06T13:39:39;1.88;;;1.77;;
27618;SDS011;15039;50.830;4.730;2023-01-06T13:42:05;3.60;;;1.90;;
27618;SDS011;15039;50.830;4.730;2023-01-06T13:44:33;1.83;;;1.70;;
27618;SDS011;15039;50.830;4.730;2023-01-06T13:47:05;2.22;;;1.95;;
27618;SDS011;15039;50.830;4.730;2023-01-06T13:49:35;2.65;;;1.63;;
27618;SDS011;15039;50.830;4.730;2023-01-06T13:52:03;2.03;;;1.83;;
27618;SDS011;15039;50.830;4.730;2023-01-06T13:59:53;1.70;;;1.60;;
27618;SDS011;15039;50.830;4.730;2023-01-06T14:07:48;3.10;;;1.98;;
27618;SDS011;15039;50.830;4.730;2023-01-06T14:13:03;2.30;;;1.63;;
27618;SDS011;15039;50.830;4.730;2023-01-06T14:15:50;2.00;;;1.60;;
27618;SDS011;15039;50.830;4.730;2023-01-06T14:18:33;1.90;;;1.80;;
27618;SDS011;15039;50.830;4.730;2023-01-06T14:21:18;1.90;;;1.70;;
27618;SDS011;15039;50.830;4.730;2023-01-06T14:26:42;1.83;;;1.63;;
27618;SDS011;15039;50.830;4.730;2023-01-06T14:32:09;1.45;;;1.10;;
27618;SDS011;15039;50.830;4.730;2023-01-06T14:34:35;1.30;;;1.20;;
27618;SDS011;15039;50.830;4.730;2023-01-06T14:37:03;2.13;;;1.35;;
27618;SDS011;15039;50.830;4.730;2023-01-06T14:39:35;1.48;;;1.38;;
27618;SDS011;15039;50.830;4.730;2023-01-06T14:42:12;1.10;;;1.10;;
27618;SDS011;15039;50.830;4.730;2023-01-06T14:44:43;1.27;;;1.15;;
27618;SDS011;15039;50.830;4.730;2023-01-06T14:50:08;1.45;;;1.33;;
27618;SDS011;15039;50.830;4.730;2023-01-06T14:52:41;1.45;;;1.35;;
27618;SDS011;15039;50.830;4.730;2023-01-06T14:55:14;1.92;;;1.30;;
27618;SDS011;15039;50.830;4.730;2023-01-06T14:57:42;1.60;;;1.50;;
27618;SDS011;15039;50.830;4.730;2023-01-06T15:00:18;1.30;;;1.20;;
27618;SDS011;15039;50.830;4.730;2023-01-06T15:02:52;1.23;;;1.13;;
27618;SDS011;15039;50.830;4.730;2023-01-06T15:10:28;2.80;;;1.48;;
27618;SDS011;15039;50.830;4.730;2023-01-06T15:12:58;1.40;;;1.30;;
27618;SDS011;15039;50.830;4.730;2023-01-06T15:15:27;1.60;;;1.40;;
27618;SDS011;15039;50.830;4.730;2023-01-06T15:17:57;1.77;;;1.30;;
27618;SDS011;15039;50.830;4.730;2023-01-06T15:20:30;1.98;;;1.08;;
27618;SDS011;15039;50.830;4.730;2023-01-06T15:22:59;1.13;;;1.00;;
27618;SDS011;15039;50.830;4.730;2023-01-06T15:25:26;2.13;;;1.20;;
27618;SDS011;15039;50.830;4.730;2023-01-06T15:27:53;1.90;;;1.55;;
27618;SDS011;15039;50.830;4.730;2023-01-06T15:30:22;1.60;;;1.50;;
27618;SDS011;15039;50.830;4.730;2023-01-06T15:32:50;2.28;;;1.80;;
27618;SDS011;15039;50.830;4.730;2023-01-06T15:35:21;1.95;;;1.83;;
27618;SDS011;15039;50.830;4.730;2023-01-06T15:40:44;2.50;;;2.25;;
27618;SDS011;15039;50.830;4.730;2023-01-06T15:43:13;1.88;;;1.65;;
27618;SDS011;15039;50.830;4.730;2023-01-06T15:45:39;2.08;;;1.90;;
27618;SDS011;15039;50.830;4.730;2023-01-06T15:48:08;1.00;;;1.00;;
27618;SDS011;15039;50.830;4.730;2023-01-06T15:50:39;1.80;;;1.30;;
27618;SDS011;15039;50.830;4.730;2023-01-06T15:53:05;1.80;;;1.30;;
27618;SDS011;15039;50.830;4.730;2023-01-06T15:55:46;1.23;;;1.05;;
27618;SDS011;15039;50.830;4.730;2023-01-06T16:00:58;1.77;;;0.90;;
27618;SDS011;15039;50.830;4.730;2023-01-06T16:03:35;2.65;;;1.25;;
27618;SDS011;15039;50.830;4.730;2023-01-06T16:14:02;1.17;;;1.10;;
27618;SDS011;15039;50.830;4.730;2023-01-06T16:16:35;1.02;;;1.02;;
27618;SDS011;15039;50.830;4.730;2023-01-06T16:19:09;1.75;;;0.82;;
27618;SDS011;15039;50.830;4.730;2023-01-06T16:21:42;0.98;;;0.88;;
27618;SDS011;15039;50.830;4.730;2023-01-06T16:24:24;1.38;;;1.08;;
27618;SDS011;15039;50.830;4.730;2023-01-06T16:26:58;1.15;;;1.10;;
27618;SDS011;15039;50.830;4.730;2023-01-06T16:29:27;1.40;;;0.90;;
27618;SDS011;15039;50.830;4.730;2023-01-06T16:31:55;1.40;;;1.30;;
27618;SDS011;15039;50.830;4.730;2023-01-06T16:34:29;2.45;;;1.02;;
27618;SDS011;15039;50.830;4.730;2023-01-06T16:36:56;1.52;;;1.30;;
27618;SDS011;15039;50.830;4.730;2023-01-06T16:39:23;1.80;;;1.40;;
27618;SDS011;15039;50.830;4.730;2023-01-06T16:44:24;2.00;;;1.50;;
27618;SDS011;15039;50.830;4.730;2023-01-06T16:46:50;2.00;;;1.80;;
27618;SDS011;15039;50.830;4.730;2023-01-06T16:49:16;1.40;;;1.30;;
27618;SDS011;15039;50.830;4.730;2023-01-06T16:51:41;2.72;;;1.38;;
27618;SDS011;15039;50.830;4.730;2023-01-06T16:54:09;2.10;;;1.90;;
27618;SDS011;15039;50.830;4.730;2023-01-06T16:56:36;2.85;;;2.08;;
27618;SDS011;15039;50.830;4.730;2023-01-06T16:59:07;2.38;;;2.13;;
27618;SDS011;15039;50.830;4.730;2023-01-06T17:01:37;1.70;;;1.40;;
27618;SDS011;15039;50.830;4.730;2023-01-06T17:04:03;2.22;;;1.55;;
27618;SDS011;15039;50.830;4.730;2023-01-06T17:06:29;3.80;;;1.30;;
27618;SDS011;15039;50.830;4.730;2023-01-06T17:08:57;1.30;;;1.20;;
27618;SDS011;15039;50.830;4.730;2023-01-06T17:11:26;1.65;;;1.55;;
27618;SDS011;15039;50.830;4.730;2023-01-06T17:13:54;2.25;;;1.65;;
27618;SDS011;15039;50.830;4.730;2023-01-06T17:16:26;1.70;;;1.60;;
27618;SDS011;15039;50.830;4.730;2023-01-06T17:19:01;2.08;;;1.88;;
27618;SDS011;15039;50.830;4.730;2023-01-06T17:21:38;2.40;;;1.70;;
27618;SDS011;15039;50.830;4.730;2023-01-06T17:26:36;1.98;;;1.73;;
27618;SDS011;15039;50.830;4.730;2023-01-06T17:29:05;1.80;;;1.70;;
27618;SDS011;15039;50.830;4.730;2023-01-06T17:31:39;2.30;;;2.10;;
27618;SDS011;15039;50.830;4.730;2023-01-06T17:36:40;2.42;;;1.73;;
27618;SDS011;15039;50.830;4.730;2023-01-06T17:39:16;2.10;;;1.70;;
27618;SDS011;15039;50.830;4.730;2023-01-06T17:41:48;4.13;;;2.05;;
27618;SDS011;15039;50.830;4.730;2023-01-06T17:44:17;1.90;;;1.80;;
27618;SDS011;15039;50.830;4.730;2023-01-06T17:46:46;2.42;;;2.20;;
27618;SDS011;15039;50.830;4.730;2023-01-06T17:51:43;2.38;;;2.20;;
27618;SDS011;15039;50.830;4.730;2023-01-06T17:54:18;2.22;;;2.03;;
27618;SDS011;15039;50.830;4.730;2023-01-06T17:57:15;2.15;;;2.03;;
27618;SDS011;15039;50.830;4.730;2023-01-06T17:59:45;2.42;;;2.30;;
27618;SDS011;15039;50.830;4.730;2023-01-06T18:07:53;3.55;;;2.17;;